createdAt,value
2023-01-27T00:01:18.835Z,15.00
2023-01-27T00:03:47.360Z,15.07
2023-01-27T00:06:16.526Z,16.67
2023-01-27T00:08:45.230Z,15.90
2023-01-27T00:11:31.126Z,16.90
2023-01-27T00:14:08.030Z,15.73
2023-01-27T00:16:36.425Z,15.07
2023-01-27T00:19:10.223Z,15.45
2023-01-27T00:21:55.916Z,15.38
2023-01-27T00:24:39.223Z,15.63
2023-01-27T00:27:09.743Z,17.05
2023-01-27T00:29:39.584Z,15.15
2023-01-27T00:32:31.220Z,17.17
2023-01-27T00:34:59.394Z,16.20
2023-01-27T00:37:28.508Z,15.88
2023-01-27T00:39:56.581Z,15.82
2023-01-27T00:42:24.648Z,16.08
2023-01-27T00:45:12.137Z,16.85
2023-01-27T00:47:40.208Z,17.50
2023-01-27T00:50:09.482Z,17.67
2023-01-27T00:52:38.579Z,17.25
2023-01-27T00:55:07.360Z,17.52
2023-01-27T00:57:35.579Z,16.67
2023-01-27T01:00:06.562Z,16.42
2023-01-27T01:02:34.569Z,17.88
2023-01-27T01:05:03.051Z,16.73
2023-01-27T01:07:30.940Z,16.50
2023-01-27T01:09:59.540Z,18.58
2023-01-27T01:12:28.000Z,18.33
2023-01-27T01:14:59.131Z,17.20
2023-01-27T01:17:28.653Z,19.25
2023-01-27T01:19:59.356Z,16.70
2023-01-27T01:22:30.298Z,16.95
2023-01-27T01:24:58.369Z,17.55
2023-01-27T01:27:27.312Z,17.45
2023-01-27T01:29:55.591Z,17.25
2023-01-27T01:32:23.734Z,19.60
2023-01-27T01:34:53.434Z,18.73
2023-01-27T01:37:22.501Z,17.63
2023-01-27T01:39:51.055Z,20.38
2023-01-27T01:42:19.789Z,18.17
2023-01-27T01:44:49.497Z,17.80
2023-01-27T01:47:18.700Z,18.02
2023-01-27T01:49:48.730Z,18.50
2023-01-27T01:52:21.787Z,18.73
2023-01-27T01:54:53.134Z,15.90
2023-01-27T01:57:24.871Z,16.80
2023-01-27T01:59:57.237Z,16.15
2023-01-27T02:02:28.464Z,17.45
2023-01-27T02:05:01.146Z,17.58
2023-01-27T02:07:37.224Z,17.25
2023-01-27T02:10:06.357Z,17.83
2023-01-27T02:12:34.458Z,17.23
2023-01-27T02:15:04.071Z,17.17
2023-01-27T02:17:32.439Z,16.20
2023-01-27T02:20:08.692Z,18.13
2023-01-27T02:22:45.833Z,16.73
2023-01-27T02:25:22.338Z,17.92
2023-01-27T02:27:51.739Z,18.67
2023-01-27T02:30:20.692Z,18.48
2023-01-27T02:32:50.621Z,18.38
2023-01-27T02:35:23.848Z,18.65
2023-01-27T02:37:55.887Z,18.67
2023-01-27T02:40:25.417Z,18.20
2023-01-27T02:42:57.488Z,18.35
2023-01-27T02:45:25.466Z,17.83
2023-01-27T02:47:53.770Z,17.02
2023-01-27T02:50:22.230Z,17.20
2023-01-27T02:52:50.241Z,18.08
2023-01-27T02:55:18.549Z,17.33
2023-01-27T02:57:46.569Z,16.27
2023-01-27T03:00:16.199Z,18.08
2023-01-27T03:02:45.618Z,18.70
2023-01-27T03:05:15.205Z,18.45
2023-01-27T03:07:44.095Z,17.58
2023-01-27T03:10:12.485Z,17.17
2023-01-27T03:12:40.509Z,18.38
2023-01-27T03:15:28.069Z,19.25
2023-01-27T03:18:12.728Z,18.30
2023-01-27T03:20:41.280Z,17.58
2023-01-27T03:23:09.767Z,18.05
2023-01-27T03:25:38.181Z,18.30
2023-01-27T03:28:06.376Z,17.85
2023-01-27T03:30:34.771Z,18.00
2023-01-27T03:33:06.562Z,16.98
2023-01-27T03:35:39.124Z,17.40
2023-01-27T03:38:29.259Z,18.27
2023-01-27T03:41:15.199Z,17.15
2023-01-27T03:44:00.849Z,16.88
2023-01-27T03:46:29.439Z,17.95
2023-01-27T03:48:59.796Z,17.67
2023-01-27T03:51:28.635Z,17.52
2023-01-27T03:53:56.922Z,16.38
2023-01-27T03:56:25.305Z,16.85
2023-01-27T03:58:53.334Z,15.90
2023-01-27T04:01:23.126Z,15.93
2023-01-27T04:04:09.288Z,17.00
2023-01-27T04:06:58.386Z,16.67
2023-01-27T04:09:28.935Z,15.25
2023-01-27T04:11:59.101Z,16.33
2023-01-27T04:14:29.993Z,17.35
2023-01-27T04:17:00.539Z,15.38
2023-01-27T04:19:28.909Z,15.10
2023-01-27T04:21:59.228Z,16.15
2023-01-27T04:24:27.608Z,14.48
2023-01-27T04:26:58.004Z,15.80
2023-01-27T04:29:27.564Z,15.63
2023-01-27T04:31:58.449Z,14.55
2023-01-27T04:34:27.184Z,16.50
2023-01-27T04:36:55.713Z,15.77
2023-01-27T04:39:26.570Z,15.57
2023-01-27T04:41:54.718Z,14.23
2023-01-27T04:44:22.683Z,14.65
2023-01-27T04:46:51.321Z,15.40
2023-01-27T04:49:19.959Z,15.90
2023-01-27T04:51:48.475Z,14.27
2023-01-27T04:54:16.452Z,14.60
2023-01-27T04:56:58.129Z,15.27
2023-01-27T04:59:26.780Z,15.20
2023-01-27T05:01:54.804Z,14.93
2023-01-27T05:04:22.933Z,14.60
2023-01-27T05:06:51.152Z,14.30
2023-01-27T05:09:19.311Z,15.23
2023-01-27T05:11:49.928Z,14.13
2023-01-27T05:14:18.099Z,13.70
2023-01-27T05:16:46.918Z,13.82
2023-01-27T05:19:14.822Z,13.85
2023-01-27T05:21:43.369Z,14.05
2023-01-27T05:24:12.285Z,13.90
2023-01-27T05:26:40.724Z,14.77
2023-01-27T05:29:13.461Z,18.40
2023-01-27T05:31:41.776Z,27.50
2023-01-27T05:34:10.841Z,19.52
2023-01-27T05:36:38.869Z,17.45
2023-01-27T05:39:08.859Z,15.20
2023-01-27T05:41:36.972Z,13.63
2023-01-27T05:44:05.911Z,14.85
2023-01-27T05:46:35.703Z,14.38
2023-01-27T05:49:05.567Z,12.02
2023-01-27T05:51:37.049Z,14.27
2023-01-27T05:54:05.467Z,12.20
2023-01-27T05:56:34.017Z,13.30
2023-01-27T05:59:02.270Z,14.10
2023-01-27T06:01:32.795Z,12.00
2023-01-27T06:04:03.048Z,12.93
2023-01-27T06:06:32.740Z,12.77
2023-01-27T06:09:01.506Z,11.98
2023-01-27T06:11:30.202Z,11.93
2023-01-27T06:13:58.657Z,11.13
2023-01-27T06:16:27.502Z,11.57
2023-01-27T06:18:55.625Z,13.05
2023-01-27T06:21:25.207Z,12.23
2023-01-27T06:23:58.539Z,12.20
2023-01-27T06:26:26.903Z,12.48
2023-01-27T06:28:58.628Z,11.93
2023-01-27T06:31:27.784Z,13.02
2023-01-27T06:33:58.726Z,11.55
2023-01-27T06:36:28.559Z,11.77
2023-01-27T06:38:56.504Z,12.18
2023-01-27T06:41:25.004Z,11.65
2023-01-27T06:43:53.342Z,11.65
2023-01-27T06:46:21.527Z,12.50
2023-01-27T06:48:50.555Z,13.07
2023-01-27T06:51:19.126Z,14.70
2023-01-27T06:53:48.543Z,15.30
2023-01-27T06:56:17.607Z,15.55
2023-01-27T06:58:46.075Z,12.02
2023-01-27T07:01:14.163Z,11.20
2023-01-27T07:03:44.733Z,13.43
2023-01-27T07:06:14.921Z,12.93
2023-01-27T07:08:45.642Z,13.02
2023-01-27T07:11:15.098Z,16.40
2023-01-27T07:13:43.585Z,14.50
2023-01-27T07:16:11.662Z,15.15
2023-01-27T07:18:40.502Z,14.70
2023-01-27T07:21:11.247Z,15.27
2023-01-27T07:23:41.451Z,19.00
2023-01-27T07:26:24.313Z,17.20
2023-01-27T07:28:54.778Z,17.63
2023-01-27T07:31:22.917Z,13.63
2023-01-27T07:33:53.346Z,12.80
2023-01-27T07:36:24.216Z,15.50
2023-01-27T07:38:52.511Z,12.63
2023-01-27T07:41:20.653Z,14.38
2023-01-27T07:43:52.221Z,14.77
2023-01-27T07:46:21.958Z,14.98
2023-01-27T07:48:50.475Z,13.52
2023-01-27T07:51:18.959Z,14.80
2023-01-27T07:53:47.568Z,13.23
2023-01-27T07:56:15.722Z,14.52
2023-01-27T07:58:44.258Z,13.77
2023-01-27T08:01:15.213Z,14.25
2023-01-27T08:03:44.823Z,17.25
2023-01-27T08:06:16.180Z,12.70
2023-01-27T08:08:44.184Z,15.57
2023-01-27T08:11:14.713Z,13.52
2023-01-27T08:13:43.850Z,13.85
2023-01-27T08:16:15.646Z,14.35
2023-01-27T08:18:45.220Z,14.10
2023-01-27T08:21:21.623Z,13.10
2023-01-27T08:23:49.668Z,13.68
2023-01-27T08:26:17.787Z,12.95
2023-01-27T08:28:45.820Z,13.10
2023-01-27T08:31:15.527Z,13.60
2023-01-27T08:33:47.340Z,13.73
2023-01-27T08:36:21.583Z,13.48
2023-01-27T08:38:50.268Z,17.90
2023-01-27T08:41:20.440Z,15.45
2023-01-27T08:43:48.615Z,14.63
2023-01-27T08:46:16.959Z,15.82
2023-01-27T08:48:46.731Z,13.95
2023-01-27T08:51:18.282Z,13.43
2023-01-27T08:53:46.739Z,13.43
2023-01-27T08:56:17.082Z,11.82
2023-01-27T08:58:48.578Z,14.15
2023-01-27T09:01:17.674Z,15.10
2023-01-27T09:03:48.245Z,12.10
2023-01-27T09:06:17.393Z,24.90
2023-01-27T09:09:06.156Z,27.85
2023-01-27T09:11:34.978Z,13.05
2023-01-27T09:14:02.996Z,15.10
2023-01-27T09:16:31.166Z,12.48
2023-01-27T09:19:02.163Z,14.45
2023-01-27T09:21:30.312Z,13.25
2023-01-27T09:23:58.442Z,15.60
2023-01-27T09:26:26.766Z,30.40
2023-01-27T09:28:54.945Z,30.27
2023-01-27T09:31:23.018Z,19.90
2023-01-27T09:33:51.077Z,13.30
2023-01-27T09:36:22.977Z,42.80
2023-01-27T09:38:55.431Z,20.92
2023-01-27T09:41:54.513Z,15.30
2023-01-27T09:44:39.241Z,9.68
2023-01-27T09:47:24.971Z,9.57
2023-01-27T09:50:19.502Z,8.05
2023-01-27T09:53:21.366Z,10.00
2023-01-27T09:55:57.995Z,7.88
2023-01-27T09:58:42.376Z,8.57
2023-01-27T10:01:19.885Z,9.73
2023-01-27T10:04:24.484Z,8.52
2023-01-27T10:07:06.564Z,8.18
2023-01-27T10:09:55.756Z,7.53
2023-01-27T10:12:43.261Z,6.75
2023-01-27T10:15:24.829Z,6.15
2023-01-27T10:18:01.633Z,6.10
2023-01-27T10:20:38.121Z,6.60
2023-01-27T10:23:16.027Z,8.65
2023-01-27T10:25:56.023Z,7.30
2023-01-27T10:28:28.017Z,6.25
2023-01-27T10:31:01.426Z,9.70
2023-01-27T10:33:41.345Z,10.27
2023-01-27T10:36:17.448Z,9.05
2023-01-27T10:38:50.375Z,10.38
2023-01-27T10:41:31.289Z,10.73
2023-01-27T10:44:11.564Z,12.20
2023-01-27T10:46:49.938Z,9.10
2023-01-27T10:49:24.273Z,11.88
2023-01-27T10:51:56.758Z,11.23
2023-01-27T10:54:34.240Z,10.90
2023-01-27T10:57:07.552Z,8.70
2023-01-27T10:59:50.232Z,8.27
2023-01-27T11:02:36.614Z,7.18
2023-01-27T11:05:09.745Z,7.53
2023-01-27T11:10:20.234Z,5.95
2023-01-27T11:12:55.402Z,7.60
2023-01-27T11:15:29.332Z,7.07
2023-01-27T11:18:02.574Z,5.68
2023-01-27T11:20:35.437Z,5.97
2023-01-27T11:23:12.145Z,5.78
2023-01-27T11:25:48.571Z,11.38
2023-01-27T11:28:29.327Z,9.02
2023-01-27T11:31:09.044Z,9.93
2023-01-27T11:33:51.893Z,10.05
2023-01-27T11:36:20.272Z,7.38
2023-01-27T11:38:48.289Z,6.00
2023-01-27T11:41:16.415Z,6.03
2023-01-27T11:43:46.577Z,7.93
2023-01-27T11:46:23.874Z,7.80
2023-01-27T11:48:56.824Z,8.25
2023-01-27T11:51:26.531Z,8.65
2023-01-27T11:54:13.068Z,8.93
2023-01-27T11:56:42.480Z,9.63
2023-01-27T11:59:17.939Z,8.65
2023-01-27T12:01:52.669Z,9.63
2023-01-27T12:04:25.491Z,7.95
2023-01-27T12:07:00.390Z,6.90
2023-01-27T12:09:33.123Z,6.07
2023-01-27T12:12:25.960Z,4.93
2023-01-27T12:14:57.903Z,4.47
2023-01-27T12:17:32.799Z,5.45
2023-01-27T12:20:07.036Z,4.53
2023-01-27T12:22:38.535Z,4.95
2023-01-27T12:25:15.105Z,3.47
2023-01-27T12:27:51.035Z,3.88
2023-01-27T12:30:23.965Z,4.03
2023-01-27T12:32:53.131Z,3.30
2023-01-27T12:35:24.754Z,4.05
2023-01-27T12:37:59.561Z,3.65
2023-01-27T12:40:29.569Z,4.05
2023-01-27T12:43:28.029Z,4.13
2023-01-27T12:46:22.828Z,3.47
2023-01-27T12:48:52.808Z,3.88
2023-01-27T12:51:23.492Z,4.55
2023-01-27T12:54:12.575Z,3.90
2023-01-27T12:56:40.753Z,4.03
2023-01-27T12:59:19.569Z,3.72
2023-01-27T13:02:01.040Z,3.88
2023-01-27T13:04:30.515Z,4.10
2023-01-27T13:07:08.016Z,4.35
2023-01-27T13:09:40.964Z,3.90
2023-01-27T13:12:17.882Z,4.05
2023-01-27T13:14:49.297Z,3.63
2023-01-27T13:17:44.651Z,3.45
2023-01-27T13:20:21.246Z,3.75
2023-01-27T13:22:53.123Z,3.95
2023-01-27T13:25:24.843Z,4.00
2023-01-27T13:28:00.813Z,3.65
2023-01-27T13:30:34.272Z,3.15
2023-01-27T13:33:17.741Z,3.22
2023-01-27T13:35:57.237Z,3.55
2023-01-27T13:38:32.247Z,3.90
2023-01-27T13:41:04.506Z,3.60
2023-01-27T13:43:37.162Z,4.03
2023-01-27T13:46:11.474Z,5.68
2023-01-27T13:48:45.459Z,4.78
2023-01-27T13:51:19.013Z,5.15
2023-01-27T13:53:49.981Z,6.15
2023-01-27T13:56:33.770Z,7.63
2023-01-27T13:59:12.342Z,9.65
2023-01-27T14:01:51.327Z,6.60
2023-01-27T14:04:41.074Z,5.93
2023-01-27T14:07:18.821Z,5.47
2023-01-27T14:10:00.279Z,5.60
2023-01-27T14:12:41.127Z,4.70
2023-01-27T14:15:23.675Z,5.25
2023-01-27T14:17:58.021Z,5.10
2023-01-27T14:20:57.736Z,4.53
2023-01-27T14:23:37.261Z,4.07
2023-01-27T14:26:16.148Z,4.10
2023-01-27T14:28:58.989Z,4.07
2023-01-27T14:31:47.135Z,8.90
2023-01-27T14:34:31.968Z,4.70
2023-01-27T14:37:11.298Z,4.50
2023-01-27T14:39:49.191Z,3.83
2023-01-27T14:42:25.809Z,4.40
2023-01-27T14:45:03.815Z,5.03
2023-01-27T14:47:39.912Z,4.55
2023-01-27T14:50:22.186Z,5.07
2023-01-27T14:53:02.865Z,4.27
2023-01-27T14:55:38.353Z,4.82
2023-01-27T14:58:22.971Z,4.50
2023-01-27T15:01:02.248Z,4.25
2023-01-27T15:03:52.096Z,3.92
2023-01-27T15:06:26.659Z,4.80
2023-01-27T15:09:02.688Z,26.52
2023-01-27T15:11:53.645Z,9.07
2023-01-27T15:14:50.913Z,4.68
2023-01-27T15:17:37.332Z,7.72
2023-01-27T15:20:37.390Z,6.97
2023-01-27T15:23:22.967Z,5.30
2023-01-27T15:25:55.448Z,3.28
2023-01-27T15:28:30.120Z,4.82
2023-01-27T15:31:22.224Z,4.65
2023-01-27T15:33:53.287Z,3.80
2023-01-27T15:36:33.180Z,4.03
2023-01-27T15:39:03.741Z,4.35
2023-01-27T15:41:36.217Z,4.85
2023-01-27T15:44:06.671Z,6.95
2023-01-27T15:46:37.644Z,12.63
2023-01-27T15:49:15.283Z,12.55
2023-01-27T15:51:43.595Z,7.50
2023-01-27T15:54:18.808Z,12.57
2023-01-27T15:56:52.549Z,12.32
2023-01-27T15:59:25.050Z,7.13
2023-01-27T16:02:04.453Z,8.10
2023-01-27T16:04:35.745Z,11.95
2023-01-27T16:07:07.255Z,11.90
2023-01-27T16:09:41.644Z,12.18
2023-01-27T16:12:37.672Z,10.65
2023-01-27T16:15:22.967Z,5.07
2023-01-27T16:18:17.915Z,5.97
2023-01-27T16:20:53.073Z,7.45
2023-01-27T16:23:33.170Z,6.38
2023-01-27T16:26:18.999Z,5.88
2023-01-27T16:28:53.465Z,4.22
2023-01-27T16:31:28.245Z,5.18
2023-01-27T16:34:00.043Z,6.03
2023-01-27T16:36:30.919Z,5.07
2023-01-27T16:39:06.816Z,5.05
2023-01-27T16:41:42.271Z,4.32
2023-01-27T16:44:21.269Z,4.60
2023-01-27T16:46:52.553Z,3.28
2023-01-27T16:49:25.115Z,5.82
2023-01-27T16:51:56.118Z,3.85
2023-01-27T16:54:30.539Z,2.65
2023-01-27T16:56:59.920Z,3.83
2023-01-27T16:59:33.188Z,3.50
2023-01-27T17:02:03.759Z,3.95
2023-01-27T17:04:32.928Z,2.78
2023-01-27T17:07:10.283Z,3.00
2023-01-27T17:09:55.581Z,3.15
2023-01-27T17:12:33.280Z,2.83
2023-01-27T17:15:16.222Z,2.72
2023-01-27T17:17:45.233Z,2.30
2023-01-27T17:20:25.708Z,2.47
2023-01-27T17:22:55.698Z,2.45
2023-01-27T17:25:30.708Z,1.55
2023-01-27T17:28:02.576Z,2.67
2023-01-27T17:30:39.554Z,2.00
2023-01-27T17:33:09.808Z,2.58
2023-01-27T17:35:40.699Z,2.00
2023-01-27T17:38:15.336Z,2.17
2023-01-27T17:40:45.573Z,2.80
2023-01-27T17:43:31.016Z,2.13
2023-01-27T17:46:25.283Z,2.80
2023-01-27T17:48:55.623Z,7.28
2023-01-27T17:51:26.050Z,3.60
2023-01-27T17:53:58.199Z,3.28
2023-01-27T17:56:31.534Z,2.93
2023-01-27T17:59:04.629Z,3.35
2023-01-27T18:04:03.562Z,3.17
2023-01-27T18:06:32.150Z,2.70
2023-01-27T18:09:02.991Z,3.38
2023-01-27T18:11:33.935Z,3.97
2023-01-27T18:14:07.816Z,3.47
2023-01-27T18:16:37.655Z,3.40
2023-01-27T18:19:18.504Z,5.55
2023-01-27T18:21:47.155Z,6.47
2023-01-27T18:24:23.117Z,4.50
2023-01-27T18:26:51.774Z,4.75
2023-01-27T18:29:25.563Z,3.30
2023-01-27T18:31:56.959Z,4.40
2023-01-27T18:34:30.861Z,6.20
2023-01-27T18:37:02.253Z,3.50
2023-01-27T18:39:41.379Z,2.85
2023-01-27T18:42:14.970Z,4.72
2023-01-27T18:44:43.495Z,3.65
2023-01-27T18:47:31.946Z,4.75
2023-01-27T18:50:03.433Z,3.42
2023-01-27T18:52:31.866Z,4.85
2023-01-27T18:55:03.781Z,4.70
2023-01-27T18:57:32.521Z,4.50
2023-01-27T19:00:01.136Z,4.32
2023-01-27T19:02:29.828Z,3.20
2023-01-27T19:05:00.692Z,4.47
2023-01-27T19:07:28.923Z,3.40
2023-01-27T19:09:57.306Z,3.13
2023-01-27T19:12:25.748Z,4.10
2023-01-27T19:14:54.180Z,4.05
2023-01-27T19:17:24.318Z,3.40
2023-01-27T19:19:52.327Z,3.28
2023-01-27T19:22:21.630Z,3.88
2023-01-27T19:24:50.728Z,2.90
2023-01-27T19:27:20.499Z,3.25
2023-01-27T19:29:48.820Z,3.95
2023-01-27T19:32:17.479Z,4.00
2023-01-27T19:34:45.874Z,3.90
2023-01-27T19:37:19.882Z,3.10
2023-01-27T19:39:49.560Z,2.28
2023-01-27T19:42:17.687Z,2.55
2023-01-27T19:44:45.961Z,3.13
2023-01-27T19:47:14.939Z,2.35
2023-01-27T19:49:43.385Z,2.78
2023-01-27T19:52:13.013Z,2.50
2023-01-27T19:54:41.487Z,2.95
2023-01-27T19:57:16.962Z,2.92
2023-01-27T19:59:45.472Z,3.50
2023-01-27T20:02:14.519Z,3.38
2023-01-27T20:04:42.847Z,3.85
2023-01-27T20:07:13.523Z,3.38
2023-01-27T20:09:41.764Z,3.42
2023-01-27T20:12:16.473Z,3.35
2023-01-27T20:14:44.816Z,3.80
2023-01-27T20:17:13.093Z,4.25
2023-01-27T20:19:42.259Z,3.80
2023-01-27T20:22:15.149Z,3.45
2023-01-27T20:24:43.383Z,3.55
2023-01-27T20:27:11.830Z,3.15
2023-01-27T20:29:41.806Z,3.13
2023-01-27T20:32:10.689Z,3.40
2023-01-27T20:34:40.542Z,3.25
2023-01-27T20:37:08.895Z,3.20
2023-01-27T20:39:38.515Z,3.58
2023-01-27T20:42:07.570Z,3.30
2023-01-27T20:44:35.916Z,4.28
2023-01-27T20:47:05.321Z,4.07
2023-01-27T20:49:33.938Z,4.25
2023-01-27T20:52:02.701Z,4.43
2023-01-27T20:54:31.316Z,3.65
2023-01-27T20:56:59.626Z,3.95
2023-01-27T20:59:27.934Z,3.67
2023-01-27T21:01:56.203Z,4.35
2023-01-27T21:04:25.652Z,3.58
2023-01-27T21:06:53.985Z,3.97
2023-01-27T21:09:24.831Z,4.32
2023-01-27T21:11:53.544Z,4.07
2023-01-27T21:14:21.829Z,3.67
2023-01-27T21:16:50.307Z,4.22
2023-01-27T21:19:20.624Z,3.65
2023-01-27T21:21:49.926Z,4.00
2023-01-27T21:24:18.948Z,4.88
2023-01-27T21:26:47.302Z,4.57
2023-01-27T21:29:15.726Z,4.75
2023-01-27T21:31:44.359Z,4.95
2023-01-27T21:34:13.124Z,4.57
2023-01-27T21:36:44.121Z,4.78
2023-01-27T21:39:16.093Z,5.30
2023-01-27T21:42:03.353Z,4.95
2023-01-27T21:44:49.483Z,5.57
2023-01-27T21:47:23.361Z,5.30
2023-01-27T21:50:07.423Z,5.57
2023-01-27T21:52:40.093Z,5.00
2023-01-27T21:55:14.397Z,5.25
2023-01-27T21:57:43.206Z,5.03
2023-01-27T22:00:14.178Z,5.22
2023-01-27T22:02:43.980Z,5.10
2023-01-27T22:05:13.315Z,4.88
2023-01-27T22:07:42.099Z,5.07
2023-01-27T22:10:16.717Z,5.03
2023-01-27T22:12:45.660Z,5.43
2023-01-27T22:15:16.095Z,4.80
2023-01-27T22:17:45.337Z,5.30
2023-01-27T22:20:14.433Z,4.80
2023-01-27T22:22:43.177Z,4.75
2023-01-27T22:25:16.349Z,7.65
2023-01-27T22:27:45.095Z,4.75
2023-01-27T22:30:16.313Z,5.35
2023-01-27T22:32:44.765Z,5.07
2023-01-27T22:35:17.943Z,4.82
2023-01-27T22:37:48.848Z,5.35
2023-01-27T22:40:19.503Z,5.78
2023-01-27T22:42:49.869Z,5.18
2023-01-27T22:45:18.519Z,5.75
2023-01-27T22:47:46.906Z,5.03
2023-01-27T22:50:15.462Z,5.20
2023-01-27T22:52:44.195Z,5.55
2023-01-27T22:55:14.139Z,5.35
2023-01-27T22:57:45.962Z,5.55
2023-01-27T23:00:14.567Z,5.13
2023-01-27T23:02:43.143Z,5.32
2023-01-27T23:05:12.253Z,5.43
2023-01-27T23:07:43.361Z,5.63
2023-01-27T23:10:12.179Z,5.57
2023-01-27T23:12:40.463Z,5.15
2023-01-27T23:15:12.522Z,5.47
2023-01-27T23:17:42.102Z,4.70
2023-01-27T23:20:11.243Z,4.68
2023-01-27T23:22:39.469Z,4.90
2023-01-27T23:25:08.557Z,4.60
2023-01-27T23:27:36.918Z,5.20
2023-01-27T23:30:09.010Z,4.68
2023-01-27T23:32:38.959Z,5.70
2023-01-27T23:35:08.138Z,5.85
2023-01-27T23:37:36.703Z,5.60
2023-01-27T23:40:05.609Z,6.85
2023-01-27T23:42:34.535Z,6.97
2023-01-27T23:45:06.807Z,6.35
2023-01-27T23:47:35.511Z,5.50
2023-01-27T23:50:05.986Z,5.95
2023-01-27T23:52:35.609Z,5.47
2023-01-27T23:55:04.458Z,6.47
2023-01-27T23:57:33.151Z,6.53
